Time;durP1;ratioP1;P1;durP2;ratioP2;P2;SDS_P1;SDS_P2;PMS_P1;PMS_P2;Temp;Humidity;BMP_temperature;BMP_pressure;BME280_temperature;BME280_humidity;BME280_pressure;Samples;Min_cycle;Max_cycle;Signal;HPM_P1;HPM_P2
2023/12/18 00:01:29;;;;;;;0.80;0.50;;;;;;;-143.84;79.91;45220.44;5050870;28;20456;-60
2023/12/18 00:03:56;;;;;;;1.17;1.07;;;;;;;-143.84;80.21;45252.81;5051227;28;20440;-59
2023/12/18 00:06:23;;;;;;;0.90;0.73;;;;;;;-143.84;80.15;45243.31;5050719;28;20445;-60
2023/12/18 00:08:51;;;;;;;2.03;1.93;;;;;;;-143.84;79.85;45258.53;5050428;28;20452;-60
2023/12/18 00:11:19;;;;;;;4.67;0.83;;;;;;;-143.84;79.41;45231.88;5050598;28;20480;-60
2023/12/18 00:13:46;;;;;;;1.37;1.20;;;;;;;-143.84;79.69;45249.00;5050561;28;20446;-60
2023/12/18 00:16:13;;;;;;;0.80;0.67;;;;;;;-143.84;79.75;45229.97;5050770;28;20845;-60
2023/12/18 00:18:40;;;;;;;0.80;0.50;;;;;;;-143.84;80.09;45260.44;5050579;28;20448;-59
2023/12/18 00:21:07;;;;;;;0.80;0.63;;;;;;;-143.84;79.62;45252.81;5050688;28;20452;-60
2023/12/18 00:23:34;;;;;;;0.97;0.87;;;;;;;-143.84;80.06;45235.69;5050316;28;20462;-59
2023/12/18 00:26:03;;;;;;;0.80;0.53;;;;;;;-143.84;79.59;45262.34;5050023;28;20462;-60
2023/12/18 00:28:30;;;;;;;2.40;0.93;;;;;;;-143.84;79.57;45235.69;5050346;28;20791;-59
2023/12/18 00:30:57;;;;;;;0.80;0.50;;;;;;;-143.84;78.95;45262.34;5050118;28;20481;-59
2023/12/18 00:33:26;;;;;;;2.00;1.90;;;;;;;-143.84;79.36;45252.81;5050124;28;20441;-60
2023/12/18 00:35:53;;;;;;;0.80;0.50;;;;;;;-143.84;78.74;45262.34;5050245;28;20957;-60
2023/12/18 00:38:23;;;;;;;1.33;1.23;;;;;;;-143.84;78.47;45241.41;5050170;28;20498;-60
2023/12/18 00:40:50;;;;;;;0.80;0.60;;;;;;;-143.84;78.28;45239.50;5050056;28;20464;-60
2023/12/18 00:43:19;;;;;;;0.80;0.63;;;;;;;-143.84;77.88;45243.31;5050064;28;20441;-60
2023/12/18 00:45:46;;;;;;;0.90;0.80;;;;;;;-143.84;77.61;45231.88;5050009;28;20451;-60
2023/12/18 00:48:13;;;;;;;0.90;0.73;;;;;;;-143.84;77.54;45241.41;5050147;28;20452;-60
2023/12/18 00:50:40;;;;;;;0.80;0.60;;;;;;;-143.84;77.02;45233.78;5049787;28;20539;-60
2023/12/18 00:53:07;;;;;;;0.80;0.50;;;;;;;-143.84;76.97;45228.06;5049757;28;20571;-60
2023/12/18 00:55:35;;;;;;;0.80;0.60;;;;;;;-143.84;76.95;45224.25;5049688;28;20474;-60
2023/12/18 00:58:02;;;;;;;1.00;0.67;;;;;;;-143.84;76.99;45254.72;5049916;28;20445;-60
2023/12/18 01:00:30;;;;;;;1.97;0.90;;;;;;;-143.84;76.84;45247.09;5049847;28;20440;-60
2023/12/18 01:02:57;;;;;;;1.40;1.23;;;;;;;-143.84;76.66;45250.91;5049723;28;20441;-60
2023/12/18 01:05:24;;;;;;;0.80;0.50;;;;;;;-143.84;76.43;45269.97;5049563;28;20440;-60
2023/12/18 01:07:52;;;;;;;1.07;0.97;;;;;;;-143.84;76.92;45258.53;5049353;28;20446;-60
2023/12/18 01:10:19;;;;;;;0.80;0.70;;;;;;;-143.84;77.01;45224.25;5049526;28;20564;-60
2023/12/18 01:12:46;;;;;;;1.07;0.67;;;;;;;-143.84;77.06;45262.34;5049508;28;20962;-60
2023/12/18 01:15:13;;;;;;;1.27;1.17;;;;;;;-143.84;76.76;45249.00;5049532;28;20457;-60
2023/12/18 01:17:42;;;;;;;0.80;0.50;;;;;;;-143.84;76.41;45254.72;5049436;28;20453;-60
2023/12/18 01:20:10;;;;;;;0.80;0.60;;;;;;;-143.84;76.94;45239.50;5049234;28;20453;-60
2023/12/18 01:22:37;;;;;;;1.00;0.70;;;;;;;-143.84;76.92;45260.44;5049675;28;20518;-59
2023/12/18 01:25:05;;;;;;;0.90;0.80;;;;;;;-143.84;76.90;45249.00;5049541;28;20878;-60
2023/12/18 01:27:32;;;;;;;0.90;0.70;;;;;;;-143.84;76.80;45235.69;5049878;28;20438;-60
2023/12/18 01:29:59;;;;;;;0.80;0.50;;;;;;;-143.84;77.37;45252.81;5049408;28;20445;-60
2023/12/18 01:32:26;;;;;;;0.80;0.60;;;;;;;-143.84;77.20;45266.16;5049301;28;20463;-60
2023/12/18 01:34:55;;;;;;;0.80;0.50;;;;;;;-143.84;77.07;45254.72;5049088;28;20447;-60
2023/12/18 01:37:22;;;;;;;1.67;0.70;;;;;;;-143.84;77.29;45254.72;5048692;28;20444;-60
2023/12/18 01:39:49;;;;;;;0.80;0.47;;;;;;;-143.84;77.35;45228.06;5048902;28;20949;-60
2023/12/18 01:42:16;;;;;;;0.80;0.57;;;;;;;-143.84;77.66;45241.41;5048930;28;20449;-60
2023/12/18 01:44:43;;;;;;;0.80;0.50;;;;;;;-143.84;77.21;45250.91;5049129;28;20449;-60
2023/12/18 01:47:11;;;;;;;0.80;0.73;;;;;;;-143.84;77.66;45260.44;5048910;28;20882;-60
2023/12/18 01:49:40;;;;;;;0.80;0.53;;;;;;;-143.84;77.73;45264.25;5048626;28;20445;-60
2023/12/18 01:52:09;;;;;;;1.53;1.43;;;;;;;-143.84;77.80;45264.25;5048967;28;20997;-60
2023/12/18 01:54:36;;;;;;;0.80;0.60;;;;;;;-143.84;77.50;45254.72;5048736;28;20509;-60
2023/12/18 01:57:05;;;;;;;0.90;0.80;;;;;;;-143.84;77.55;45268.06;5048764;28;20509;-60
2023/12/18 01:59:34;;;;;;;3.03;1.20;;;;;;;-143.84;77.86;45258.53;5048627;28;21060;-60
2023/12/18 02:02:02;;;;;;;0.80;0.60;;;;;;;-143.84;78.09;45226.16;5048658;28;20458;-60
2023/12/18 02:04:29;;;;;;;0.80;0.40;;;;;;;-143.84;77.74;45250.91;5048436;28;20451;-60
2023/12/18 02:07:01;;;;;;;0.80;0.60;;;;;;;-143.84;78.08;45243.31;5048513;28;20506;-60
2023/12/18 02:09:30;;;;;;;0.80;0.60;;;;;;;-143.84;77.96;45252.81;5048524;28;20452;-60
2023/12/18 02:11:58;;;;;;;1.00;0.73;;;;;;;-143.84;78.23;45210.94;5048652;28;20539;-60
2023/12/18 02:14:25;;;;;;;0.80;0.50;;;;;;;-143.84;78.14;45250.91;5048497;28;21404;-60
2023/12/18 02:16:52;;;;;;;0.80;0.40;;;;;;;-143.84;78.41;45249.00;5048912;28;21324;-60
2023/12/18 02:19:23;;;;;;;2.80;1.70;;;;;;;-143.84;77.82;45241.41;5048672;28;20460;-60
2023/12/18 02:21:51;;;;;;;0.90;0.70;;;;;;;-143.84;78.03;45250.91;5048385;28;20433;-60
2023/12/18 02:24:19;;;;;;;0.80;0.80;;;;;;;-143.84;77.65;45275.66;5048314;28;20453;-60
2023/12/18 02:26:47;;;;;;;1.47;1.37;;;;;;;-143.84;77.78;45224.25;5048357;28;20494;-60
2023/12/18 02:29:15;;;;;;;0.80;0.50;;;;;;;-143.84;77.89;45243.31;5048364;28;20436;-60
2023/12/18 02:31:43;;;;;;;0.80;0.53;;;;;;;-143.84;77.51;45264.25;5048495;28;20823;-60
2023/12/18 02:34:10;;;;;;;0.80;0.73;;;;;;;-143.84;77.93;45260.44;5048166;28;20506;-59
2023/12/18 02:36:37;;;;;;;0.80;0.50;;;;;;;-143.84;77.84;45262.34;5048432;28;20445;-60
2023/12/18 02:39:04;;;;;;;0.80;0.60;;;;;;;-143.84;77.47;45243.31;5048293;28;20447;-59
2023/12/18 02:41:33;;;;;;;1.20;0.67;;;;;;;-143.84;78.20;45245.19;5048204;28;20443;-60
2023/12/18 02:44:00;;;;;;;1.20;0.93;;;;;;;-143.84;78.00;45220.44;5048526;28;20444;-60
2023/12/18 02:46:27;;;;;;;0.80;0.50;;;;;;;-143.84;78.28;45250.91;5048012;28;20498;-60
2023/12/18 02:48:54;;;;;;;0.80;0.50;;;;;;;-143.84;78.05;45260.44;5051338;28;20445;-59
2023/12/18 02:51:21;;;;;;;0.80;0.60;;;;;;;-143.84;78.15;45243.31;5052193;28;20491;-60
2023/12/18 02:53:49;;;;;;;2.27;1.10;;;;;;;-143.84;78.41;45258.53;5052142;28;20452;-60
2023/12/18 02:56:16;;;;;;;1.30;1.20;;;;;;;-143.84;78.18;45249.00;5052067;28;20456;-60
2023/12/18 02:58:44;;;;;;;0.80;0.50;;;;;;;-143.84;78.37;45243.31;5052172;28;20843;-60
2023/12/18 03:01:11;;;;;;;0.80;0.50;;;;;;;-143.84;78.58;45254.72;5052111;28;20453;-60
2023/12/18 03:03:39;;;;;;;0.80;0.50;;;;;;;-143.84;78.84;45250.91;5052077;28;20567;-60
2023/12/18 03:06:06;;;;;;;0.93;0.87;;;;;;;-143.84;78.75;45273.78;5052062;28;20444;-60
2023/12/18 03:08:33;;;;;;;0.80;0.50;;;;;;;-143.84;78.91;45258.53;5051881;28;20452;-60
2023/12/18 03:11:00;;;;;;;0.90;0.70;;;;;;;-143.84;79.05;45239.50;5052010;28;20491;-60
2023/12/18 03:13:27;;;;;;;1.17;1.07;;;;;;;-143.84;79.02;45239.50;5051707;28;20435;-60
2023/12/18 03:15:57;;;;;;;1.00;0.80;;;;;;;-143.84;79.34;45228.06;5051828;28;20503;-60
2023/12/18 03:18:24;;;;;;;0.97;0.87;;;;;;;-143.84;78.74;45241.41;5051356;28;20449;-60
2023/12/18 03:20:51;;;;;;;0.80;0.70;;;;;;;-143.84;79.19;45235.69;5051728;28;21008;-60
2023/12/18 03:23:18;;;;;;;0.90;0.80;;;;;;;-143.84;79.11;45258.53;5049940;28;20451;-60
2023/12/18 03:25:46;;;;;;;0.80;0.50;;;;;;;-143.84;78.70;45254.72;5051615;28;21023;-60
2023/12/18 03:28:15;;;;;;;0.80;0.57;;;;;;;-143.84;78.34;45245.19;5051816;28;20473;-60
2023/12/18 03:30:43;;;;;;;1.20;0.93;;;;;;;-143.84;78.08;45229.97;5051602;28;20590;-60
2023/12/18 03:33:11;;;;;;;1.10;1.00;;;;;;;-143.84;77.85;45252.81;5051540;28;20451;-60
2023/12/18 03:35:38;;;;;;;0.80;0.50;;;;;;;-143.84;77.60;45243.31;5051383;28;20456;-60
2023/12/18 03:38:05;;;;;;;0.80;0.70;;;;;;;-143.84;77.43;45260.44;5051632;28;20453;-60
2023/12/18 03:40:32;;;;;;;1.97;0.83;;;;;;;-143.84;77.13;45231.88;5051809;28;20449;-60
2023/12/18 03:43:00;;;;;;;0.80;0.63;;;;;;;-143.84;77.23;45269.97;5051573;28;20443;-60
2023/12/18 03:45:27;;;;;;;0.80;0.60;;;;;;;-143.84;77.05;45260.44;5051093;28;20452;-60
2023/12/18 03:47:54;;;;;;;0.80;0.60;;;;;;;-143.84;76.78;45271.88;5051200;28;20441;-60
2023/12/18 03:50:23;;;;;;;0.80;0.50;;;;;;;-143.84;76.63;45252.81;5050905;28;20802;-59
2023/12/18 03:52:50;;;;;;;0.80;0.60;;;;;;;-143.84;76.19;45214.72;5050791;28;20538;-60
2023/12/18 03:55:17;;;;;;;1.50;1.00;;;;;;;-143.84;75.76;45256.63;5050800;28;20493;-60
2023/12/18 03:57:44;;;;;;;0.80;0.50;;;;;;;-143.84;75.51;45258.53;5051181;28;20857;-60
2023/12/18 04:00:13;;;;;;;1.53;1.13;;;;;;;-143.84;75.30;45233.78;5050019;28;20443;-60
2023/12/18 04:02:40;;;;;;;0.80;0.50;;;;;;;-143.84;74.90;45268.06;5049841;28;21222;-60
2023/12/18 04:05:08;;;;;;;1.50;1.37;;;;;;;-143.84;74.53;45254.72;5050463;28;20448;-60
2023/12/18 04:07:37;;;;;;;1.53;1.07;;;;;;;-143.84;74.40;45231.88;5050194;28;21139;-60
2023/12/18 04:10:04;;;;;;;1.17;1.07;;;;;;;-143.84;74.21;45247.09;5050465;28;20578;-60
2023/12/18 04:12:30;;;;;;;0.80;0.50;;;;;;;-143.84;74.09;45231.88;5050333;28;20491;-60
2023/12/18 04:14:58;;;;;;;0.87;0.70;;;;;;;-143.84;74.27;45247.09;5049889;28;20527;-60
2023/12/18 04:17:25;;;;;;;0.80;0.60;;;;;;;-143.84;74.27;45245.19;5049649;28;20445;-60
2023/12/18 04:19:52;;;;;;;0.83;0.63;;;;;;;-143.84;73.63;45264.25;5049867;28;20456;-60
2023/12/18 04:22:19;;;;;;;0.80;0.50;;;;;;;-143.84;74.01;45247.09;5049862;28;20495;-60
2023/12/18 04:24:47;;;;;;;0.97;0.80;;;;;;;-143.84;73.64;45249.00;5045519;28;20460;-60
2023/12/18 04:27:15;;;;;;;0.80;0.50;;;;;;;-143.84;73.40;45239.50;5034370;28;20453;-60
2023/12/18 04:29:42;;;;;;;0.80;0.70;;;;;;;-143.84;73.30;45249.00;5049816;28;20444;-59
2023/12/18 04:32:09;;;;;;;0.80;0.63;;;;;;;-143.84;73.19;45241.41;5050419;28;20543;-60
2023/12/18 04:34:36;;;;;;;0.80;0.60;;;;;;;-143.84;73.36;45231.88;5050292;28;20446;-60
2023/12/18 04:37:03;;;;;;;4.30;1.37;;;;;;;-143.84;73.47;45249.00;5050178;28;20438;-59
2023/12/18 04:39:30;;;;;;;1.17;0.97;;;;;;;-143.84;73.64;45243.31;5049993;28;20465;-59
2023/12/18 04:41:59;;;;;;;0.80;0.40;;;;;;;-143.84;73.18;45249.00;5050177;28;20452;-59
2023/12/18 04:44:26;;;;;;;0.80;0.50;;;;;;;-143.84;73.57;45264.25;5049145;28;20441;-59
2023/12/18 04:46:53;;;;;;;0.80;0.50;;;;;;;-143.84;73.56;45279.47;5050237;28;20436;-60
2023/12/18 04:49:21;;;;;;;0.83;0.83;;;;;;;-143.84;73.66;45229.97;5050289;28;20441;-60
2023/12/18 04:51:48;;;;;;;0.97;0.87;;;;;;;-143.84;74.00;45241.41;5049768;28;20478;-59
2023/12/18 04:54:15;;;;;;;0.80;0.60;;;;;;;-143.84;74.11;45273.78;5049711;28;20872;-60
2023/12/18 04:56:42;;;;;;;0.80;0.70;;;;;;;-143.84;74.17;45239.50;5049147;28;21250;-60
2023/12/18 04:59:11;;;;;;;0.80;0.70;;;;;;;-143.84;74.45;45241.41;5049656;28;20932;-60
2023/12/18 05:01:38;;;;;;;0.80;0.50;;;;;;;-143.84;74.31;45252.81;5049703;28;20934;-60
2023/12/18 05:04:06;;;;;;;0.80;0.50;;;;;;;-143.84;74.04;45250.91;5050133;28;20521;-60
2023/12/18 05:06:33;;;;;;;0.83;0.60;;;;;;;-143.84;74.28;45224.25;5049838;28;20936;-60
2023/12/18 05:09:00;;;;;;;0.80;0.60;;;;;;;-143.84;74.36;45268.06;5049558;28;20440;-60
2023/12/18 05:11:27;;;;;;;0.80;0.67;;;;;;;-143.84;74.10;45266.16;5048513;28;20487;-60
2023/12/18 05:13:54;;;;;;;2.40;0.93;;;;;;;-143.84;74.53;45262.34;5049402;28;20501;-60
2023/12/18 05:16:23;;;;;;;0.90;0.70;;;;;;;-143.84;74.58;45243.31;5049711;28;20449;-60
2023/12/18 05:18:50;;;;;;;1.87;1.03;;;;;;;-143.84;74.38;45220.44;5049305;28;20457;-60
2023/12/18 05:21:17;;;;;;;0.80;0.50;;;;;;;-143.84;74.80;45258.53;5049541;28;21038;-60
2023/12/18 05:23:47;;;;;;;0.93;0.83;;;;;;;-143.84;74.70;45228.06;5049404;28;20445;-60
2023/12/18 05:26:14;;;;;;;0.80;0.70;;;;;;;-143.84;75.13;45235.69;5049429;28;20441;-59
2023/12/18 05:28:41;;;;;;;0.90;0.60;;;;;;;-143.84;74.84;45249.00;5049547;28;20990;-60
2023/12/18 05:31:10;;;;;;;0.90;0.73;;;;;;;-143.84;75.13;45250.91;5048750;28;20500;-60
2023/12/18 05:33:38;;;;;;;0.80;0.50;;;;;;;-143.84;74.79;45228.06;5046595;28;20491;-60
2023/12/18 05:36:07;;;;;;;0.80;0.50;;;;;;;-143.84;75.09;45241.41;5048711;28;20471;-60
2023/12/18 05:38:34;;;;;;;0.80;0.50;;;;;;;-143.84;74.76;45233.78;5048915;28;20532;-60
2023/12/18 05:41:01;;;;;;;1.37;1.03;;;;;;;-143.84;74.90;45231.88;5049233;28;21111;-60
2023/12/18 05:43:28;;;;;;;0.90;0.70;;;;;;;-143.84;74.98;45264.25;5048913;28;20451;-60
2023/12/18 05:45:56;;;;;;;1.53;1.43;;;;;;;-143.84;74.65;45254.72;5049039;28;20448;-60
2023/12/18 05:48:23;;;;;;;0.80;0.73;;;;;;;-143.84;75.11;45233.78;5048896;28;20454;-60
2023/12/18 05:50:51;;;;;;;0.80;0.73;;;;;;;-143.84;75.21;45241.41;5049024;28;20432;-59
2023/12/18 05:53:18;;;;;;;0.90;0.63;;;;;;;-143.84;75.60;45245.19;5048579;28;20481;-60
2023/12/18 05:55:46;;;;;;;0.80;0.50;;;;;;;-143.84;75.14;45245.19;5048804;28;20483;-60
2023/12/18 05:58:13;;;;;;;1.10;0.67;;;;;;;-143.84;75.21;45237.59;5049091;28;20571;-60
2023/12/18 06:00:40;;;;;;;0.80;0.60;;;;;;;-143.84;74.57;45264.25;5048633;28;20514;-59
2023/12/18 06:03:07;;;;;;;0.80;0.50;;;;;;;-143.84;74.63;45237.59;5049051;28;20444;-59
2023/12/18 06:05:34;;;;;;;2.30;0.97;;;;;;;-143.84;74.01;45256.63;5048750;28;20441;-60
2023/12/18 06:08:03;;;;;;;0.90;0.80;;;;;;;-143.84;73.82;45245.19;5048541;28;20453;-59
2023/12/18 06:10:30;;;;;;;6.80;1.73;;;;;;;-143.84;73.56;45245.19;5048710;28;20882;-60
2023/12/18 06:12:57;;;;;;;0.80;0.60;;;;;;;-143.84;73.24;45249.00;5048709;28;20476;-59
2023/12/18 06:15:24;;;;;;;1.47;1.37;;;;;;;-143.84;73.05;45214.72;5048462;28;20456;-60
2023/12/18 06:17:53;;;;;;;0.90;0.80;;;;;;;-143.84;72.52;45250.91;5048482;28;20441;-60
2023/12/18 06:20:20;;;;;;;1.37;1.27;;;;;;;-143.84;72.00;45252.81;5048675;28;20792;-60
2023/12/18 06:22:47;;;;;;;2.80;2.30;;;;;;;-143.84;71.66;45218.53;5048029;28;20499;-60
2023/12/18 06:25:16;;;;;;;0.80;0.50;;;;;;;-143.84;71.51;45247.09;5048153;28;20445;-60
2023/12/18 06:27:44;;;;;;;0.90;0.73;;;;;;;-143.84;71.57;45228.06;5048805;28;20460;-60
2023/12/18 06:30:12;;;;;;;1.30;1.20;;;;;;;-143.84;70.97;45218.53;5048487;28;20437;-60
2023/12/18 06:32:39;;;;;;;11.83;1.53;;;;;;;-143.84;70.68;45247.09;5048068;28;20484;-59
2023/12/18 06:35:07;;;;;;;0.80;0.53;;;;;;;-143.84;70.38;45252.81;5048556;28;21272;-60
2023/12/18 06:37:34;;;;;;;0.90;0.57;;;;;;;-143.84;69.86;45237.59;5048646;28;20445;-60
2023/12/18 06:40:03;;;;;;;0.80;0.50;;;;;;;-143.84;68.78;45231.88;5048383;28;20437;-60
2023/12/18 06:42:32;;;;;;;1.00;0.90;;;;;;;-143.84;68.29;45241.41;5048518;28;20818;-60
2023/12/18 06:44:59;;;;;;;1.13;1.03;;;;;;;-143.84;67.24;45235.69;5048686;28;20434;-59
2023/12/18 06:47:26;;;;;;;3.20;1.00;;;;;;;-143.84;66.83;45249.00;5048373;28;20433;-60
2023/12/18 06:49:53;;;;;;;2.17;1.80;;;;;;;-143.84;66.67;45214.72;5048326;28;20441;-60
2023/12/18 06:52:20;;;;;;;0.80;0.60;;;;;;;-143.84;65.82;45226.16;5048046;28;20485;-60
2023/12/18 06:54:48;;;;;;;0.80;0.70;;;;;;;-143.84;65.67;45229.97;5048005;28;20489;-60
2023/12/18 06:57:16;;;;;;;0.80;0.70;;;;;;;-143.84;64.87;45252.81;5048194;28;21016;-60
2023/12/18 06:59:44;;;;;;;1.30;1.20;;;;;;;-143.84;64.30;45239.50;5047979;28;20460;-60
2023/12/18 07:02:12;;;;;;;0.90;0.60;;;;;;;-143.84;63.78;45205.22;5048448;28;20450;-60
2023/12/18 07:04:39;;;;;;;1.47;1.37;;;;;;;-143.84;63.23;45239.50;5048039;28;20596;-60
2023/12/18 07:07:07;;;;;;;0.80;0.60;;;;;;;-143.84;62.82;45254.72;5048167;28;20817;-60
2023/12/18 07:09:34;;;;;;;0.93;0.83;;;;;;;-143.84;62.18;45209.03;5047800;28;20961;-60
2023/12/18 07:12:02;;;;;;;0.80;0.50;;;;;;;-143.84;62.43;45220.44;5048092;28;20573;-60
2023/12/18 07:14:29;;;;;;;1.63;1.53;;;;;;;-143.84;62.17;45247.09;5047892;28;20460;-60
2023/12/18 07:16:57;;;;;;;1.57;1.47;;;;;;;-143.84;61.65;45216.63;5047962;28;20962;-60
2023/12/18 07:19:24;;;;;;;0.80;0.47;;;;;;;-143.84;61.39;45237.59;5047930;28;20451;-60
2023/12/18 07:21:52;;;;;;;2.60;1.30;;;;;;;-143.84;60.57;45226.16;5048007;28;20443;-60
2023/12/18 07:24:19;;;;;;;0.87;0.70;;;;;;;-143.84;60.43;45228.06;5047648;28;20509;-60
2023/12/18 07:26:46;;;;;;;1.70;1.53;;;;;;;-143.84;59.75;45214.72;5047686;28;20433;-60
2023/12/18 07:29:13;;;;;;;1.07;0.97;;;;;;;-143.84;58.56;45212.84;5047993;28;20491;-60
2023/12/18 07:31:40;;;;;;;0.80;0.60;;;;;;;-143.84;57.58;45228.06;5048001;28;20434;-60
2023/12/18 07:34:09;;;;;;;0.80;0.50;;;;;;;-143.84;57.49;45212.84;5048139;28;20465;-60
2023/12/18 07:36:39;;;;;;;1.73;1.43;;;;;;;-143.84;56.42;45197.59;5051383;28;20453;-60
2023/12/18 07:39:06;;;;;;;1.10;1.00;;;;;;;-143.84;55.29;45209.03;5051373;28;21079;-60
2023/12/18 07:41:33;;;;;;;0.80;0.50;;;;;;;-143.84;54.94;45212.84;5051312;28;20449;-60
2023/12/18 07:44:00;;;;;;;0.80;0.60;;;;;;;-143.84;55.20;45220.44;5051664;28;20793;-60
2023/12/18 07:46:28;;;;;;;0.80;0.50;;;;;;;-143.84;55.77;45209.03;5051517;28;20533;-60
2023/12/18 07:48:55;;;;;;;0.80;0.60;;;;;;;-143.84;54.88;45220.44;5051157;28;20545;-60
2023/12/18 07:51:23;;;;;;;7.60;1.73;;;;;;;-143.84;55.23;45209.03;5051236;28;20946;-60
2023/12/18 07:53:51;;;;;;;1.17;1.07;;;;;;;-143.84;54.38;45186.16;5050636;28;20496;-60
2023/12/18 07:56:18;;;;;;;2.50;1.23;;;;;;;-143.84;53.91;45212.84;5050997;28;20441;-59
2023/12/18 07:58:45;;;;;;;0.80;0.50;;;;;;;-143.84;54.50;45228.06;5050954;28;20449;-60
2023/12/18 08:01:13;;;;;;;0.90;0.77;;;;;;;-143.84;54.52;45197.59;5051111;28;20580;-60
2023/12/18 08:03:41;;;;;;;1.00;0.90;;;;;;;-143.84;54.26;45212.84;5050782;28;20523;-60
2023/12/18 08:06:09;;;;;;;0.80;0.60;;;;;;;-143.84;53.32;45207.13;5050789;28;20449;-60
2023/12/18 08:08:37;;;;;;;1.03;0.90;;;;;;;-143.84;52.01;45212.84;5050867;28;20438;-60
2023/12/18 08:11:04;;;;;;;1.53;1.33;;;;;;;-143.84;51.32;45191.88;5051002;28;21244;-60
2023/12/18 08:13:37;;;;;;;0.80;0.60;;;;;;;-143.84;51.31;45224.25;5050790;28;20489;-60
2023/12/18 08:16:05;;;;;;;0.80;0.63;;;;;;;-143.84;51.29;45209.03;5050853;28;20442;-60
2023/12/18 08:18:33;;;;;;;1.27;0.93;;;;;;;-143.84;50.93;45203.31;5050686;28;20515;-60
2023/12/18 08:21:00;;;;;;;0.80;0.70;;;;;;;-143.84;50.99;45220.44;5050383;28;20442;-60
2023/12/18 08:23:27;;;;;;;0.80;0.50;;;;;;;-143.84;51.00;45197.59;5050566;28;20456;-60
2023/12/18 08:25:56;;;;;;;0.87;0.63;;;;;;;-143.84;50.67;45207.13;5050840;28;20885;-60
2023/12/18 08:28:23;;;;;;;0.80;0.63;;;;;;;-143.84;50.19;45193.78;5050372;28;20507;-60
2023/12/18 08:30:50;;;;;;;1.37;1.10;;;;;;;-143.84;50.56;45201.41;5050633;28;20438;-59
2023/12/18 08:33:17;;;;;;;0.80;0.40;;;;;;;-143.84;50.39;45218.53;5050390;28;20493;-59
2023/12/18 08:35:44;;;;;;;0.80;0.50;;;;;;;-143.84;49.59;45209.03;5050109;28;20477;-60
2023/12/18 08:38:11;;;;;;;1.97;1.33;;;;;;;-143.84;49.19;45189.97;5050446;28;20438;-60
2023/12/18 08:40:38;;;;;;;1.00;0.50;;;;;;;-143.84;48.77;45178.56;5050321;28;20449;-60
2023/12/18 08:43:07;;;;;;;0.80;0.60;;;;;;;-143.84;48.98;45209.03;5050052;28;20448;-60
2023/12/18 08:48:56;;;;;;;0.83;0.60;;;;;;;-143.84;49.23;45178.56;5049327;28;20456;-59
2023/12/18 08:51:23;;;;;;;1.10;0.90;;;;;;;-143.84;49.64;45218.53;5048790;28;20446;-59
2023/12/18 08:53:50;;;;;;;0.80;0.57;;;;;;;-143.84;49.18;45184.25;5049107;28;20581;-59
2023/12/18 08:56:17;;;;;;;1.17;1.07;;;;;;;-143.84;48.77;45199.50;5049364;28;20799;-59
2023/12/18 08:58:46;;;;;;;0.83;0.57;;;;;;;-143.84;49.18;45186.16;5049456;28;20437;-59
2023/12/18 09:01:13;;;;;;;0.80;0.60;;;;;;;-143.84;49.51;45212.84;5049334;28;20446;-59
2023/12/18 09:03:40;;;;;;;2.20;0.83;;;;;;;-143.84;49.42;45209.03;5049644;28;20457;-59
2023/12/18 09:06:08;;;;;;;0.90;0.77;;;;;;;-143.84;50.03;45195.69;5049275;28;20434;-59
2023/12/18 09:08:39;;;;;;;1.33;1.23;;;;;;;-143.84;50.05;45184.25;5049637;28;20442;-59
2023/12/18 09:11:07;;;;;;;0.80;0.50;;;;;;;-143.84;49.57;45205.22;5049503;28;20528;-59
2023/12/18 09:13:34;;;;;;;0.80;0.50;;;;;;;-143.84;50.16;45216.63;5049351;28;20481;-59
2023/12/18 09:16:03;;;;;;;0.90;0.70;;;;;;;-143.84;50.24;45193.78;5049899;28;20445;-59
2023/12/18 09:18:30;;;;;;;1.43;1.33;;;;;;;-143.84;50.36;45170.94;5049850;28;20503;-61
2023/12/18 09:20:58;;;;;;;1.37;0.70;;;;;;;-143.84;49.97;45184.25;5049555;28;20928;-60
2023/12/18 09:23:26;;;;;;;0.80;0.53;;;;;;;-143.84;49.76;45174.75;5049393;28;20433;-59
2023/12/18 09:25:53;;;;;;;1.30;1.10;;;;;;;-143.84;49.39;45184.25;5049501;28;20872;-59
2023/12/18 09:28:20;;;;;;;1.30;1.20;;;;;;;-143.84;47.88;45174.75;5049481;28;20850;-59
2023/12/18 09:30:47;;;;;;;1.43;1.03;;;;;;;-143.84;46.68;45197.59;5049201;28;20449;-60
2023/12/18 09:33:16;;;;;;;0.90;0.70;;;;;;;-143.84;46.02;45176.66;5049122;28;20481;-59
2023/12/18 09:35:43;;;;;;;0.90;0.73;;;;;;;-143.84;46.74;45159.50;5049219;28;20504;-60
2023/12/18 09:38:10;;;;;;;0.80;0.60;;;;;;;-143.84;46.28;45178.56;5049012;28;20441;-60
2023/12/18 09:40:37;;;;;;;3.13;2.83;;;;;;;-143.84;46.64;45188.06;5049070;28;20504;-60
2023/12/18 09:43:05;;;;;;;0.80;0.67;;;;;;;-143.84;46.80;45195.69;5049196;28;20434;-60
2023/12/18 09:45:32;;;;;;;0.80;0.40;;;;;;;-143.84;46.59;45172.84;5049034;28;20520;-60
2023/12/18 09:48:00;;;;;;;0.90;0.70;;;;;;;-143.84;46.78;45163.31;5048834;28;20453;-60
2023/12/18 09:50:29;;;;;;;1.43;0.80;;;;;;;-143.84;46.62;45188.06;5049091;28;20434;-60
2023/12/18 09:53:48;;;;;;;1.30;1.20;;;;;;;-143.84;46.19;45148.09;5049038;28;21315;-60
2023/12/18 09:56:17;;;;;;;1.77;1.43;;;;;;;-143.84;46.52;45188.06;5048723;28;20437;-60
2023/12/18 09:58:46;;;;;;;3.33;0.93;;;;;;;-143.84;46.98;45167.13;5047986;28;20510;-60
2023/12/18 10:01:14;;;;;;;1.00;0.90;;;;;;;-143.84;47.29;45165.22;5048615;28;20495;-59
2023/12/18 10:03:42;;;;;;;0.90;0.63;;;;;;;-143.84;46.99;45195.69;5048621;28;20445;-60
2023/12/18 10:06:10;;;;;;;1.87;1.77;;;;;;;-143.84;46.49;45172.84;5048622;28;20499;-60
2023/12/18 10:08:38;;;;;;;1.00;0.80;;;;;;;-143.84;46.22;45184.25;5048443;28;20503;-59
2023/12/18 10:11:05;;;;;;;1.17;0.70;;;;;;;-143.84;47.11;45197.59;5048382;28;20430;-60
2023/12/18 10:13:32;;;;;;;2.50;0.90;;;;;;;-143.84;47.03;45161.41;5048314;28;20493;-59
2023/12/18 10:16:00;;;;;;;1.30;0.70;;;;;;;-143.84;46.11;45180.47;5048457;28;20897;-60
2023/12/18 10:18:27;;;;;;;0.90;0.70;;;;;;;-143.84;46.69;45191.88;5048572;28;20452;-60
2023/12/18 10:20:55;;;;;;;1.00;0.67;;;;;;;-143.84;47.03;45170.94;5048418;28;20923;-59
2023/12/18 10:23:24;;;;;;;0.80;0.60;;;;;;;-143.84;47.59;45161.41;5048591;28;20568;-59
2023/12/18 10:25:52;;;;;;;1.10;0.83;;;;;;;-143.84;46.86;45174.75;5048455;28;20457;-59
2023/12/18 10:28:19;;;;;;;1.07;0.97;;;;;;;-143.84;46.95;45163.31;5048595;28;20460;-59
2023/12/18 10:30:47;;;;;;;1.73;0.80;;;;;;;-143.84;47.74;45195.69;5048193;28;20449;-59
2023/12/18 10:33:15;;;;;;;1.33;1.23;;;;;;;-143.84;47.74;45203.31;5048085;28;20485;-59
2023/12/18 10:35:42;;;;;;;1.60;0.87;;;;;;;-143.84;48.06;45176.66;5048340;28;20503;-59
2023/12/18 10:38:10;;;;;;;1.07;0.97;;;;;;;-143.84;48.46;45169.03;5048307;28;20826;-59
2023/12/18 10:40:38;;;;;;;1.70;0.93;;;;;;;-143.84;48.14;45176.66;5048309;28;20484;-59
2023/12/18 10:43:22;;;;;;;0.80;0.60;;;;;;;-143.84;49.43;45172.84;5048170;28;20449;-59
2023/12/18 10:45:52;;;;;;;1.10;1.00;;;;;;;-143.84;50.16;45178.56;5048056;28;20449;-59
2023/12/18 10:48:20;;;;;;;1.90;1.30;;;;;;;-143.84;49.71;45159.50;5048120;28;20947;-59
2023/12/18 10:50:50;;;;;;;0.97;0.67;;;;;;;-143.84;49.45;45176.66;5048067;28;20445;-59
2023/12/18 10:53:18;;;;;;;2.13;1.87;;;;;;;-143.84;49.37;45180.47;5048208;28;20534;-59
2023/12/18 10:55:48;;;;;;;2.70;1.50;;;;;;;-143.84;48.92;45155.69;5048148;28;21161;-59
2023/12/18 10:58:17;;;;;;;1.20;0.93;;;;;;;-143.84;48.96;45197.59;5048115;28;20525;-59
2023/12/18 11:00:45;;;;;;;1.20;1.10;;;;;;;-143.84;48.25;45172.84;5047938;28;20442;-59
2023/12/18 11:03:14;;;;;;;1.10;0.70;;;;;;;-143.84;48.16;45178.56;5047950;28;20430;-59
2023/12/18 11:05:43;;;;;;;1.33;0.77;;;;;;;-143.84;48.40;45180.47;5047977;28;20448;-59
2023/12/18 11:08:12;;;;;;;0.80;0.50;;;;;;;-143.84;47.70;45136.66;5048484;28;20561;-59
2023/12/18 11:10:39;;;;;;;2.83;1.17;;;;;;;-143.84;47.61;45167.13;5051920;28;20446;-59
2023/12/18 11:13:18;;;;;;;3.47;1.00;;;;;;;-143.84;47.70;45193.78;5052063;28;20780;-59
2023/12/18 11:15:56;;;;;;;1.50;0.63;;;;;;;-143.84;48.08;45144.28;5051714;28;20869;-59
2023/12/18 11:18:32;;;;;;;1.10;1.00;;;;;;;-143.84;47.49;45155.69;5051770;28;20442;-59
2023/12/18 11:20:59;;;;;;;0.90;0.70;;;;;;;-143.84;48.14;45163.31;5051712;28;20441;-59
2023/12/18 11:23:27;;;;;;;0.90;0.70;;;;;;;-143.84;47.84;45155.69;5051631;28;20437;-59